sensor_id;sensor_type;location;lat;lon;timestamp;pressure;altitude;pressure_sealevel;temperature;humidity
20160;BME280;50187;50.492;12.134;2023-07-13T00:01:49;97367.84;;;27.84;40.49
20160;BME280;50187;50.492;12.134;2023-07-13T00:04:17;97371.63;;;27.83;40.56
20160;BME280;50187;50.492;12.134;2023-07-13T00:06:45;97375.22;;;27.84;40.63
20160;BME280;50187;50.492;12.134;2023-07-13T00:09:13;97369.75;;;27.84;40.51
20160;BME280;50187;50.492;12.134;2023-07-13T00:11:40;97373.53;;;27.83;40.66
20160;BME280;50187;50.492;12.134;2023-07-13T00:14:08;97371.63;;;27.83;40.72
20160;BME280;50187;50.492;12.134;2023-07-13T00:16:37;97369.09;;;27.82;40.63
20160;BME280;50187;50.492;12.134;2023-07-13T00:19:05;97371.00;;;27.81;40.62
20160;BME280;50187;50.492;12.134;2023-07-13T00:21:32;97382.78;;;27.82;40.62
20160;BME280;50187;50.492;12.134;2023-07-13T00:23:59;97395.38;;;27.83;40.69
20160;BME280;50187;50.492;12.134;2023-07-13T00:26:27;97405.47;;;27.82;40.69
20160;BME280;50187;50.492;12.134;2023-07-13T00:28:54;97407.38;;;27.82;40.60
20160;BME280;50187;50.492;12.134;2023-07-13T00:31:21;97401.91;;;27.82;40.68
20160;BME280;50187;50.492;12.134;2023-07-13T00:33:48;97398.56;;;27.80;40.72
20160;BME280;50187;50.492;12.134;2023-07-13T00:36:14;97388.69;;;27.79;40.76
20160;BME280;50187;50.492;12.134;2023-07-13T00:38:41;97384.91;;;27.80;40.69
20160;BME280;50187;50.492;12.134;2023-07-13T00:41:09;97375.63;;;27.81;40.67
20160;BME280;50187;50.492;12.134;2023-07-13T00:43:35;97371.00;;;27.81;40.61
20160;BME280;50187;50.492;12.134;2023-07-13T00:46:14;97369.31;;;27.80;40.43
20160;BME280;50187;50.492;12.134;2023-07-13T00:48:44;97364.69;;;27.81;40.55
20160;BME280;50187;50.492;12.134;2023-07-13T00:51:16;97359.22;;;27.81;40.57
20160;BME280;50187;50.492;12.134;2023-07-13T00:53:45;97356.47;;;27.81;40.67
20160;BME280;50187;50.492;12.134;2023-07-13T00:56:12;97353.16;;;27.79;40.47
20160;BME280;50187;50.492;12.134;2023-07-13T00:58:39;97352.50;;;27.76;40.55
20160;BME280;50187;50.492;12.134;2023-07-13T01:01:06;97359.44;;;27.79;40.54
20160;BME280;50187;50.492;12.134;2023-07-13T01:03:34;97365.13;;;27.77;40.58
20160;BME280;50187;50.492;12.134;2023-07-13T01:06:01;97383.22;;;27.79;40.44
20160;BME280;50187;50.492;12.134;2023-07-13T01:08:27;97367.63;;;27.79;40.44
20160;BME280;50187;50.492;12.134;2023-07-13T01:10:55;97378.56;;;27.79;40.47
20160;BME280;50187;50.492;12.134;2023-07-13T01:13:23;97370.59;;;27.77;40.47
20160;BME280;50187;50.492;12.134;2023-07-13T01:15:52;97366.81;;;27.79;40.47
20160;BME280;50187;50.492;12.134;2023-07-13T01:18:22;97354.19;;;27.77;40.47
20160;BME280;50187;50.492;12.134;2023-07-13T01:23:21;97361.34;;;27.79;40.56
20160;BME280;50187;50.492;12.134;2023-07-13T01:25:48;97357.97;;;27.76;40.37
20160;BME280;50187;50.492;12.134;2023-07-13T01:28:15;97365.13;;;27.77;40.52
20160;BME280;50187;50.492;12.134;2023-07-13T01:30:44;97366.16;;;27.76;40.49
20160;BME280;50187;50.492;12.134;2023-07-13T01:33:17;97373.31;;;27.77;40.54
20160;BME280;50187;50.492;12.134;2023-07-13T01:35:45;97360.72;;;27.76;40.40
20160;BME280;50187;50.492;12.134;2023-07-13T01:38:17;97363.66;;;27.75;40.45
20160;BME280;50187;50.492;12.134;2023-07-13T01:40:44;97363.06;;;27.73;40.53
20160;BME280;50187;50.492;12.134;2023-07-13T01:43:11;97372.72;;;27.75;40.47
20160;BME280;50187;50.492;12.134;2023-07-13T01:45:37;97378.19;;;27.75;40.43
20160;BME280;50187;50.492;12.134;2023-07-13T01:48:04;97379.44;;;27.73;40.57
20160;BME280;50187;50.492;12.134;2023-07-13T01:50:34;97387.44;;;27.74;40.35
20160;BME280;50187;50.492;12.134;2023-07-13T01:53:01;97389.13;;;27.75;40.33
20160;BME280;50187;50.492;12.134;2023-07-13T01:55:28;97384.69;;;27.74;40.39
20160;BME280;50187;50.492;12.134;2023-07-13T01:57:56;97390.16;;;27.74;40.57
20160;BME280;50187;50.492;12.134;2023-07-13T02:00:23;97381.97;;;27.74;40.53
20160;BME280;50187;50.492;12.134;2023-07-13T02:02:51;97374.81;;;27.73;40.48
20160;BME280;50187;50.492;12.134;2023-07-13T02:05:18;97369.34;;;27.73;40.39
20160;BME280;50187;50.492;12.134;2023-07-13T02:07:46;97375.88;;;27.72;40.49
20160;BME280;50187;50.492;12.134;2023-07-13T02:10:13;97377.53;;;27.73;40.40
20160;BME280;50187;50.492;12.134;2023-07-13T02:12:41;97373.97;;;27.73;40.51
20160;BME280;50187;50.492;12.134;2023-07-13T02:15:09;97377.53;;;27.73;40.50
20160;BME280;50187;50.492;12.134;2023-07-13T02:17:36;97384.91;;;27.73;40.56
20160;BME280;50187;50.492;12.134;2023-07-13T02:20:04;97382.41;;;27.71;40.40
20160;BME280;50187;50.492;12.134;2023-07-13T02:22:31;97374.19;;;27.71;40.54
20160;BME280;50187;50.492;12.134;2023-07-13T02:24:58;97368.75;;;27.71;40.44
20160;BME280;50187;50.492;12.134;2023-07-13T02:27:24;97360.53;;;27.71;40.33
20160;BME280;50187;50.492;12.134;2023-07-13T02:29:51;97358.84;;;27.70;40.35
20160;BME280;50187;50.492;12.134;2023-07-13T02:32:19;97357.16;;;27.69;40.53
20160;BME280;50187;50.492;12.134;2023-07-13T02:34:46;97360.75;;;27.70;40.34
20160;BME280;50187;50.492;12.134;2023-07-13T02:37:12;97368.97;;;27.70;40.42
20160;BME280;50187;50.492;12.134;2023-07-13T02:39:39;97376.94;;;27.71;40.50
20160;BME280;50187;50.492;12.134;2023-07-13T02:42:06;97382.63;;;27.70;40.32
20160;BME280;50187;50.492;12.134;2023-07-13T02:44:33;97378.81;;;27.71;40.38
20160;BME280;50187;50.492;12.134;2023-07-13T02:46:59;97373.56;;;27.69;40.38
20160;BME280;50187;50.492;12.134;2023-07-13T02:49:26;97372.75;;;27.69;40.43
20160;BME280;50187;50.492;12.134;2023-07-13T02:51:53;97369.19;;;27.68;40.44
20160;BME280;50187;50.492;12.134;2023-07-13T02:54:19;97380.09;;;27.68;40.32
20160;BME280;50187;50.492;12.134;2023-07-13T02:56:46;97386.41;;;27.69;40.36
20160;BME280;50187;50.492;12.134;2023-07-13T02:59:13;97399.22;;;27.68;40.40
20160;BME280;50187;50.492;12.134;2023-07-13T03:01:39;97393.13;;;27.66;40.33
20160;BME280;50187;50.492;12.134;2023-07-13T03:04:07;97393.78;;;27.68;40.48
20160;BME280;50187;50.492;12.134;2023-07-13T03:06:34;97389.34;;;27.67;40.44
20160;BME280;50187;50.492;12.134;2023-07-13T03:09:03;97399.44;;;27.67;40.54
20160;BME280;50187;50.492;12.134;2023-07-13T03:11:32;97401.97;;;27.68;40.37
20160;BME280;50187;50.492;12.134;2023-07-13T03:14:11;97402.19;;;27.67;40.29
20160;BME280;50187;50.492;12.134;2023-07-13T03:16:39;97408.47;;;27.67;40.40
20160;BME280;50187;50.492;12.134;2023-07-13T03:19:06;97404.06;;;27.66;40.29
20160;BME280;50187;50.492;12.134;2023-07-13T03:21:32;97416.03;;;27.65;40.49
20160;BME280;50187;50.492;12.134;2023-07-13T03:23:59;97409.53;;;27.66;40.65
20160;BME280;50187;50.492;12.134;2023-07-13T03:26:27;97407.84;;;27.65;40.39
20160;BME280;50187;50.492;12.134;2023-07-13T03:28:55;97399.66;;;27.65;40.41
20160;BME280;50187;50.492;12.134;2023-07-13T03:31:25;97396.31;;;27.63;40.33
20160;BME280;50187;50.492;12.134;2023-07-13T03:33:52;97404.50;;;27.63;40.48
20160;BME280;50187;50.492;12.134;2023-07-13T03:36:24;97401.97;;;27.62;40.20
20160;BME280;50187;50.492;12.134;2023-07-13T03:38:57;97414.38;;;27.64;40.33
20160;BME280;50187;50.492;12.134;2023-07-13T03:41:29;97419.00;;;27.64;40.35
20160;BME280;50187;50.492;12.134;2023-07-13T03:43:58;97421.72;;;27.64;40.27
20160;BME280;50187;50.492;12.134;2023-07-13T03:46:26;97418.16;;;27.63;40.31
20160;BME280;50187;50.492;12.134;2023-07-13T03:48:53;97415.66;;;27.62;40.46
20160;BME280;50187;50.492;12.134;2023-07-13T03:51:19;97418.16;;;27.63;40.30
20160;BME280;50187;50.492;12.134;2023-07-13T03:53:47;97420.06;;;27.63;40.32
20160;BME280;50187;50.492;12.134;2023-07-13T03:56:17;97427.41;;;27.62;40.39
20160;BME280;50187;50.492;12.134;2023-07-13T03:58:46;97433.72;;;27.63;40.37
20160;BME280;50187;50.492;12.134;2023-07-13T04:01:18;97432.88;;;27.62;40.24
20160;BME280;50187;50.492;12.134;2023-07-13T04:03:45;97440.25;;;27.62;40.29
20160;BME280;50187;50.492;12.134;2023-07-13T04:06:19;97438.34;;;27.62;40.34
20160;BME280;50187;50.492;12.134;2023-07-13T04:08:58;97442.16;;;27.61;40.44
20160;BME280;50187;50.492;12.134;2023-07-13T04:11:28;97440.44;;;27.60;40.49
20160;BME280;50187;50.492;12.134;2023-07-13T04:13:55;97441.28;;;27.61;40.60
20160;BME280;50187;50.492;12.134;2023-07-13T04:16:22;97445.91;;;27.60;40.28
20160;BME280;50187;50.492;12.134;2023-07-13T04:18:49;97443.19;;;27.60;40.39
20160;BME280;50187;50.492;12.134;2023-07-13T04:21:16;97445.06;;;27.59;40.24
20160;BME280;50187;50.492;12.134;2023-07-13T04:23:43;97446.13;;;27.58;40.19
20160;BME280;50187;50.492;12.134;2023-07-13T04:26:10;97452.44;;;27.59;40.34
20160;BME280;50187;50.492;12.134;2023-07-13T04:28:37;97445.28;;;27.58;40.42
20160;BME280;50187;50.492;12.134;2023-07-13T04:31:04;97448.00;;;27.58;40.33
20160;BME280;50187;50.492;12.134;2023-07-13T04:33:31;97446.97;;;27.59;40.39
20160;BME280;50187;50.492;12.134;2023-07-13T04:35:57;97448.66;;;27.60;40.30
20160;BME280;50187;50.492;12.134;2023-07-13T04:38:27;97455.16;;;27.59;40.34
20160;BME280;50187;50.492;12.134;2023-07-13T04:40:56;97448.66;;;27.60;40.17
20160;BME280;50187;50.492;12.134;2023-07-13T04:43:23;97452.44;;;27.59;40.28
20160;BME280;50187;50.492;12.134;2023-07-13T04:45:51;97453.47;;;27.58;40.24
20160;BME280;50187;50.492;12.134;2023-07-13T04:48:18;97452.66;;;27.57;40.26
20160;BME280;50187;50.492;12.134;2023-07-13T04:50:46;97455.38;;;27.57;40.30
20160;BME280;50187;50.492;12.134;2023-07-13T04:53:13;97451.19;;;27.55;40.22
20160;BME280;50187;50.492;12.134;2023-07-13T04:55:39;97458.13;;;27.57;40.32
20160;BME280;50187;50.492;12.134;2023-07-13T04:58:07;97462.75;;;27.57;40.27
20160;BME280;50187;50.492;12.134;2023-07-13T05:00:33;97466.53;;;27.56;40.34
20160;BME280;50187;50.492;12.134;2023-07-13T05:03:00;97467.13;;;27.58;40.33
20160;BME280;50187;50.492;12.134;2023-07-13T05:05:27;97477.25;;;27.57;40.25
20160;BME280;50187;50.492;12.134;2023-07-13T05:07:54;97471.78;;;27.57;40.15
20160;BME280;50187;50.492;12.134;2023-07-13T05:10:21;97471.78;;;27.57;40.13
20160;BME280;50187;50.492;12.134;2023-07-13T05:12:47;97472.22;;;27.54;40.29
20160;BME280;50187;50.492;12.134;2023-07-13T05:15:14;97463.78;;;27.56;40.19
20160;BME280;50187;50.492;12.134;2023-07-13T05:17:41;97469.03;;;27.57;40.18
20160;BME280;50187;50.492;12.134;2023-07-13T05:20:09;97476.41;;;27.57;40.34
20160;BME280;50187;50.492;12.134;2023-07-13T05:22:35;97472.00;;;27.56;40.25
20160;BME280;50187;50.492;12.134;2023-07-13T05:25:05;97483.75;;;27.56;40.24
20160;BME280;50187;50.492;12.134;2023-07-13T05:27:33;97480.19;;;27.56;40.03
20160;BME280;50187;50.492;12.134;2023-07-13T05:30:00;97484.81;;;27.55;39.39
20160;BME280;50187;50.492;12.134;2023-07-13T05:32:26;97485.44;;;27.57;38.94
20160;BME280;50187;50.492;12.134;2023-07-13T05:34:53;97492.59;;;27.52;38.37
20160;BME280;50187;50.492;12.134;2023-07-13T05:37:20;97478.31;;;27.43;37.83
20160;BME280;50187;50.492;12.134;2023-07-13T05:39:47;97485.03;;;27.20;37.44
20160;BME280;50187;50.492;12.134;2023-07-13T05:42:14;97487.13;;;26.98;37.50
20160;BME280;50187;50.492;12.134;2023-07-13T05:44:40;97496.16;;;26.92;37.66
20160;BME280;50187;50.492;12.134;2023-07-13T05:47:07;97489.81;;;26.78;37.35
20160;BME280;50187;50.492;12.134;2023-07-13T05:49:34;97497.53;;;26.61;37.93
20160;BME280;50187;50.492;12.134;2023-07-13T05:52:00;97493.53;;;26.64;37.97
20160;BME280;50187;50.492;12.134;2023-07-13T05:54:27;97492.66;;;26.56;37.92
20160;BME280;50187;50.492;12.134;2023-07-13T05:56:54;97498.34;;;26.48;38.16
20160;BME280;50187;50.492;12.134;2023-07-13T05:59:20;97492.63;;;26.36;38.11
20160;BME280;50187;50.492;12.134;2023-07-13T06:01:47;97497.34;;;26.08;38.31
20160;BME280;50187;50.492;12.134;2023-07-13T06:04:13;97495.16;;;25.96;38.58
20160;BME280;50187;50.492;12.134;2023-07-13T06:06:40;97483.34;;;25.82;38.71
20160;BME280;50187;50.492;12.134;2023-07-13T06:09:06;97488.31;;;25.72;38.78
20160;BME280;50187;50.492;12.134;2023-07-13T06:11:33;97480.94;;;25.66;39.04
20160;BME280;50187;50.492;12.134;2023-07-13T06:14:01;97486.13;;;25.61;38.96
20160;BME280;50187;50.492;12.134;2023-07-13T06:16:28;97492.59;;;25.53;39.27
20160;BME280;50187;50.492;12.134;2023-07-13T06:18:54;97491.16;;;25.57;39.20
20160;BME280;50187;50.492;12.134;2023-07-13T06:21:22;97492.59;;;25.53;39.34
20160;BME280;50187;50.492;12.134;2023-07-13T06:23:50;97488.59;;;25.49;39.42
20160;BME280;50187;50.492;12.134;2023-07-13T06:26:19;97491.25;;;25.42;39.24
20160;BME280;50187;50.492;12.134;2023-07-13T06:28:46;97501.13;;;25.43;39.39
20160;BME280;50187;50.492;12.134;2023-07-13T06:31:14;97501.81;;;25.52;39.04
20160;BME280;50187;50.492;12.134;2023-07-13T06:33:41;97484.16;;;25.48;39.00
20160;BME280;50187;50.492;12.134;2023-07-13T06:36:08;97502.47;;;25.54;39.42
20160;BME280;50187;50.492;12.134;2023-07-13T06:38:36;97496.00;;;25.62;39.22
20160;BME280;50187;50.492;12.134;2023-07-13T06:41:04;97504.28;;;25.75;39.29
20160;BME280;50187;50.492;12.134;2023-07-13T06:43:30;97497.84;;;25.89;39.01
20160;BME280;50187;50.492;12.134;2023-07-13T06:45:58;97510.06;;;26.00;38.92
20160;BME280;50187;50.492;12.134;2023-07-13T06:48:25;97516.63;;;26.13;38.96
20160;BME280;50187;50.492;12.134;2023-07-13T06:50:51;97525.31;;;26.23;38.59
20160;BME280;50187;50.492;12.134;2023-07-13T06:53:19;97538.75;;;26.31;38.70
20160;BME280;50187;50.492;12.134;2023-07-13T06:55:46;97527.25;;;26.36;38.32
20160;BME280;50187;50.492;12.134;2023-07-13T06:58:18;97520.75;;;26.44;38.18
20160;BME280;50187;50.492;12.134;2023-07-13T07:00:45;97526.03;;;26.52;38.12
20160;BME280;50187;50.492;12.134;2023-07-13T07:03:12;97527.31;;;26.56;37.91
20160;BME280;50187;50.492;12.134;2023-07-13T07:05:39;97524.16;;;26.59;37.75
20160;BME280;50187;50.492;12.134;2023-07-13T07:08:06;97524.41;;;26.64;37.41
20160;BME280;50187;50.492;12.134;2023-07-13T07:10:33;97530.94;;;26.70;37.26
20160;BME280;50187;50.492;12.134;2023-07-13T07:13:00;97535.78;;;26.74;37.08
20160;BME280;50187;50.492;12.134;2023-07-13T07:15:27;97532.41;;;26.79;36.86
20160;BME280;50187;50.492;12.134;2023-07-13T07:17:53;97538.13;;;26.84;36.60
20160;BME280;50187;50.492;12.134;2023-07-13T07:20:20;97534.97;;;26.87;36.73
20160;BME280;50187;50.492;12.134;2023-07-13T07:22:48;97534.97;;;26.94;36.25
20160;BME280;50187;50.492;12.134;2023-07-13T07:25:15;97531.63;;;26.99;36.19
20160;BME280;50187;50.492;12.134;2023-07-13T07:27:42;97532.28;;;27.01;36.04
20160;BME280;50187;50.492;12.134;2023-07-13T07:30:12;97540.88;;;27.04;35.93
20160;BME280;50187;50.492;12.134;2023-07-13T07:32:41;97537.09;;;27.05;35.91
20160;BME280;50187;50.492;12.134;2023-07-13T07:35:23;97533.53;;;27.05;35.94
20160;BME280;50187;50.492;12.134;2023-07-13T07:37:50;97543.59;;;27.04;35.73
20160;BME280;50187;50.492;12.134;2023-07-13T07:40:18;97538.38;;;27.10;35.61
20160;BME280;50187;50.492;12.134;2023-07-13T07:42:47;97546.75;;;27.08;35.71
20160;BME280;50187;50.492;12.134;2023-07-13T07:45:14;97540.88;;;27.11;35.57
20160;BME280;50187;50.492;12.134;2023-07-13T07:47:41;97541.09;;;27.16;35.79
20160;BME280;50187;50.492;12.134;2023-07-13T07:50:08;97540.91;;;27.18;35.56
20160;BME280;50187;50.492;12.134;2023-07-13T07:52:35;97545.09;;;27.20;35.75
20160;BME280;50187;50.492;12.134;2023-07-13T07:55:05;97543.81;;;27.23;35.67
20160;BME280;50187;50.492;12.134;2023-07-13T07:57:35;97547.81;;;27.27;35.79
20160;BME280;50187;50.492;12.134;2023-07-13T08:00:05;97549.50;;;27.28;35.68
20160;BME280;50187;50.492;12.134;2023-07-13T08:02:39;97553.72;;;27.31;35.63
20160;BME280;50187;50.492;12.134;2023-07-13T08:05:27;97543.22;;;27.34;35.75
20160;BME280;50187;50.492;12.134;2023-07-13T08:07:56;97543.88;;;27.36;35.69
20160;BME280;50187;50.492;12.134;2023-07-13T08:10:23;97550.38;;;27.35;35.76
20160;BME280;50187;50.492;12.134;2023-07-13T08:12:50;97537.16;;;27.39;35.58
20160;BME280;50187;50.492;12.134;2023-07-13T08:15:19;97535.47;;;27.38;35.39
20160;BME280;50187;50.492;12.134;2023-07-13T08:17:48;97540.50;;;27.41;35.65
20160;BME280;50187;50.492;12.134;2023-07-13T08:20:14;97542.19;;;27.42;35.50
20160;BME280;50187;50.492;12.134;2023-07-13T08:22:41;97541.16;;;27.43;35.40
20160;BME280;50187;50.492;12.134;2023-07-13T08:25:08;97542.63;;;27.46;35.50
20160;BME280;50187;50.492;12.134;2023-07-13T08:27:34;97548.91;;;27.46;35.45
20160;BME280;50187;50.492;12.134;2023-07-13T08:30:02;97545.97;;;27.48;35.32
20160;BME280;50187;50.492;12.134;2023-07-13T08:32:28;97533.78;;;27.50;35.29
20160;BME280;50187;50.492;12.134;2023-07-13T08:34:55;97548.72;;;27.48;35.23
20160;BME280;50187;50.492;12.134;2023-07-13T08:37:22;97540.50;;;27.48;35.29
20160;BME280;50187;50.492;12.134;2023-07-13T08:39:48;97548.28;;;27.51;35.18
20160;BME280;50187;50.492;12.134;2023-07-13T08:42:22;97538.41;;;27.50;34.97
20160;BME280;50187;50.492;12.134;2023-07-13T08:47:23;97555.00;;;27.48;34.60
20160;BME280;50187;50.492;12.134;2023-07-13T08:49:50;97562.78;;;27.45;34.86
20160;BME280;50187;50.492;12.134;2023-07-13T08:54:51;97568.25;;;27.45;34.75
20160;BME280;50187;50.492;12.134;2023-07-13T08:57:24;97565.53;;;27.45;34.70
20160;BME280;50187;50.492;12.134;2023-07-13T08:59:54;97568.25;;;27.45;34.82
20160;BME280;50187;50.492;12.134;2023-07-13T09:02:27;97568.47;;;27.43;34.78
20160;BME280;50187;50.492;12.134;2023-07-13T09:05:10;97573.94;;;27.43;34.70
20160;BME280;50187;50.492;12.134;2023-07-13T09:07:42;97571.19;;;27.43;34.82
20160;BME280;50187;50.492;12.134;2023-07-13T09:10:27;97581.28;;;27.42;34.74
20160;BME280;50187;50.492;12.134;2023-07-13T09:15:47;97582.13;;;27.43;34.95
20160;BME280;50187;50.492;12.134;2023-07-13T09:20:49;97580.88;;;27.46;35.06
20160;BME280;50187;50.492;12.134;2023-07-13T09:23:20;97573.50;;;27.46;35.17
20160;BME280;50187;50.492;12.134;2023-07-13T09:25:51;97571.00;;;27.45;35.03
20160;BME280;50187;50.492;12.134;2023-07-13T09:28:27;97572.88;;;27.51;35.33
20160;BME280;50187;50.492;12.134;2023-07-13T09:31:05;97574.56;;;27.52;35.35
20160;BME280;50187;50.492;12.134;2023-07-13T09:33:32;97575.16;;;27.54;35.30
20160;BME280;50187;50.492;12.134;2023-07-13T09:38:42;97576.66;;;27.56;35.36
20160;BME280;50187;50.492;12.134;2023-07-13T09:41:26;97574.56;;;27.58;35.47
20160;BME280;50187;50.492;12.134;2023-07-13T09:44:15;97587.81;;;27.62;35.33
20160;BME280;50187;50.492;12.134;2023-07-13T09:46:53;97579.16;;;27.65;35.41
20160;BME280;50187;50.492;12.134;2023-07-13T09:49:27;97580.44;;;27.69;35.33
20160;BME280;50187;50.492;12.134;2023-07-13T09:52:05;97575.41;;;27.72;35.11
20160;BME280;50187;50.492;12.134;2023-07-13T09:54:34;97573.28;;;27.74;35.27
20160;BME280;50187;50.492;12.134;2023-07-13T09:57:03;97571.16;;;27.76;35.56
20160;BME280;50187;50.492;12.134;2023-07-13T09:59:39;97564.44;;;27.79;35.43
20160;BME280;50187;50.492;12.134;2023-07-13T10:02:36;97563.41;;;27.80;35.31
20160;BME280;50187;50.492;12.134;2023-07-13T10:05:05;97578.75;;;27.81;35.11
20160;BME280;50187;50.492;12.134;2023-07-13T10:07:35;97579.78;;;27.80;35.32
20160;BME280;50187;50.492;12.134;2023-07-13T10:10:20;97582.53;;;27.80;35.37
20160;BME280;50187;50.492;12.134;2023-07-13T10:12:49;97582.75;;;27.79;35.34
20160;BME280;50187;50.492;12.134;2023-07-13T10:15:21;97587.16;;;27.80;35.34
20160;BME280;50187;50.492;12.134;2023-07-13T10:17:51;97581.28;;;27.83;35.31
20160;BME280;50187;50.492;12.134;2023-07-13T10:20:20;97591.16;;;27.84;35.25
20160;BME280;50187;50.492;12.134;2023-07-13T10:22:54;97580.41;;;27.82;35.14
20160;BME280;50187;50.492;12.134;2023-07-13T10:25:27;97578.75;;;27.81;35.24
20160;BME280;50187;50.492;12.134;2023-07-13T10:28:00;97570.34;;;27.83;35.24
20160;BME280;50187;50.492;12.134;2023-07-13T10:30:35;97574.94;;;27.89;35.09
20160;BME280;50187;50.492;12.134;2023-07-13T10:33:10;97569.25;;;27.90;35.14
20160;BME280;50187;50.492;12.134;2023-07-13T10:35:39;97570.72;;;27.93;35.07
20160;BME280;50187;50.492;12.134;2023-07-13T10:38:11;97571.59;;;27.93;35.14
20160;BME280;50187;50.492;12.134;2023-07-13T10:40:43;97571.59;;;27.93;35.07
20160;BME280;50187;50.492;12.134;2023-07-13T10:43:18;97574.09;;;27.95;35.19
20160;BME280;50187;50.492;12.134;2023-07-13T10:45:47;97572.41;;;27.94;35.15
20160;BME280;50187;50.492;12.134;2023-07-13T10:48:17;97572.41;;;27.94;35.09
20160;BME280;50187;50.492;12.134;2023-07-13T10:50:45;97572.81;;;27.98;35.06
20160;BME280;50187;50.492;12.134;2023-07-13T10:53:28;97559.81;;;28.00;34.99
20160;BME280;50187;50.492;12.134;2023-07-13T10:55:59;97562.34;;;28.01;34.85
20160;BME280;50187;50.492;12.134;2023-07-13T10:58:35;97553.91;;;28.03;34.67
20160;BME280;50187;50.492;12.134;2023-07-13T11:03:34;97556.84;;;28.08;34.68
20160;BME280;50187;50.492;12.134;2023-07-13T11:18:50;97550.13;;;28.10;34.67
20160;BME280;50187;50.492;12.134;2023-07-13T11:21:19;97550.53;;;28.07;34.87
20160;BME280;50187;50.492;12.134;2023-07-13T11:24:18;97554.56;;;28.05;35.02
20160;BME280;50187;50.492;12.134;2023-07-13T11:31:42;97541.72;;;27.99;34.93
20160;BME280;50187;50.492;12.134;2023-07-13T11:34:15;97545.31;;;27.99;34.69
20160;BME280;50187;50.492;12.134;2023-07-13T11:36:43;97540.88;;;27.98;34.78
20160;BME280;50187;50.492;12.134;2023-07-13T11:39:17;97540.88;;;27.98;35.03
20160;BME280;50187;50.492;12.134;2023-07-13T11:41:59;97540.47;;;28.01;34.87
20160;BME280;50187;50.492;12.134;2023-07-13T11:44:28;97549.28;;;28.03;34.86
20160;BME280;50187;50.492;12.134;2023-07-13T11:46:57;97554.56;;;28.05;35.05
20160;BME280;50187;50.492;12.134;2023-07-13T11:49:31;97552.00;;;28.03;34.99
20160;BME280;50187;50.492;12.134;2023-07-13T11:51:59;97552.22;;;28.08;35.22
20160;BME280;50187;50.492;12.134;2023-07-13T11:54:31;97536.44;;;28.10;34.99
20160;BME280;50187;50.492;12.134;2023-07-13T11:57:23;97526.34;;;28.11;35.03
20160;BME280;50187;50.492;12.134;2023-07-13T11:59:52;97533.28;;;28.14;34.85
20160;BME280;50187;50.492;12.134;2023-07-13T12:04:58;97536.44;;;28.10;35.20
20160;BME280;50187;50.492;12.134;2023-07-13T12:07:29;97543.78;;;28.10;34.79
20160;BME280;50187;50.492;12.134;2023-07-13T12:10:13;97543.78;;;28.10;34.77
20160;BME280;50187;50.492;12.134;2023-07-13T12:12:56;97544.00;;;28.08;34.54
20160;BME280;50187;50.492;12.134;2023-07-13T12:15:36;97530.34;;;28.08;34.64
20160;BME280;50187;50.492;12.134;2023-07-13T12:18:12;97537.94;;;28.06;34.09
20160;BME280;50187;50.492;12.134;2023-07-13T12:20:40;97547.19;;;28.05;34.07
20160;BME280;50187;50.492;12.134;2023-07-13T12:23:36;97554.75;;;28.03;34.26
20160;BME280;50187;50.492;12.134;2023-07-13T12:26:04;97552.22;;;28.02;34.09
20160;BME280;50187;50.492;12.134;2023-07-13T12:28:38;97556.03;;;28.01;33.97
20160;BME280;50187;50.492;12.134;2023-07-13T12:31:07;97557.28;;;27.98;34.02
20160;BME280;50187;50.492;12.134;2023-07-13T12:33:47;97552.84;;;27.97;34.15
20160;BME280;50187;50.492;12.134;2023-07-13T12:36:13;97537.69;;;27.94;33.98
20160;BME280;50187;50.492;12.134;2023-07-13T12:38:40;97547.59;;;27.96;33.85
20160;BME280;50187;50.492;12.134;2023-07-13T12:41:08;97535.81;;;27.95;33.96
20160;BME280;50187;50.492;12.134;2023-07-13T12:43:36;97550.53;;;27.94;33.97
20160;BME280;50187;50.492;12.134;2023-07-13T12:46:14;97543.16;;;27.94;33.77
20160;BME280;50187;50.492;12.134;2023-07-13T12:48:43;97548.84;;;27.93;33.60
20160;BME280;50187;50.492;12.134;2023-07-13T12:51:27;97544.44;;;27.92;33.62
20160;BME280;50187;50.492;12.134;2023-07-13T12:54:06;97548.84;;;27.93;33.66
20160;BME280;50187;50.492;12.134;2023-07-13T12:56:37;97559.78;;;27.93;33.47
20160;BME280;50187;50.492;12.134;2023-07-13T12:59:04;97543.38;;;27.93;33.72
20160;BME280;50187;50.492;12.134;2023-07-13T13:01:35;97547.16;;;27.92;33.58
20160;BME280;50187;50.492;12.134;2023-07-13T13:04:03;97548.25;;;27.91;33.60
20160;BME280;50187;50.492;12.134;2023-07-13T13:06:33;97545.94;;;27.88;33.38
20160;BME280;50187;50.492;12.134;2023-07-13T13:09:02;97544.25;;;27.87;33.53
20160;BME280;50187;50.492;12.134;2023-07-13T13:11:31;97543.22;;;27.88;33.75
20160;BME280;50187;50.492;12.134;2023-07-13T13:13:58;97552.47;;;27.87;33.61
20160;BME280;50187;50.492;12.134;2023-07-13T13:18:56;97551.81;;;27.85;33.44
20160;BME280;50187;50.492;12.134;2023-07-13T13:21:25;97559.19;;;27.84;33.70
20160;BME280;50187;50.492;12.134;2023-07-13T13:23:52;97547.41;;;27.84;33.42
20160;BME280;50187;50.492;12.134;2023-07-13T13:26:23;97542.34;;;27.81;33.50
20160;BME280;50187;50.492;12.134;2023-07-13T13:28:50;97560.44;;;27.82;33.43
20160;BME280;50187;50.492;12.134;2023-07-13T13:31:17;97547.22;;;27.79;33.22
20160;BME280;50187;50.492;12.134;2023-07-13T13:33:45;97550.56;;;27.81;33.52
20160;BME280;50187;50.492;12.134;2023-07-13T13:36:14;97549.94;;;27.79;33.45
20160;BME280;50187;50.492;12.134;2023-07-13T13:38:42;97555.41;;;27.79;33.49
20160;BME280;50187;50.492;12.134;2023-07-13T13:41:10;97545.53;;;27.77;33.38
20160;BME280;50187;50.492;12.134;2023-07-13T13:43:37;97552.03;;;27.76;33.49